.
WxDataArchive / Data Records for 2015-03-04
2015-03-03 March 2015 2015-03-05

Data Records for Wednesday, 04 March 2015

Time	Temp	Chill	HIndex	Humid	Dewpt	 Wind 	HiWind	WindDir	Rain 	Barom
-----	----	-----	------	-----	-----	------	------	-------	-----	-----
00:00	34.6	34.6	34.6	83	30.0	1	4	248	0.00	29.844 
00:05	34.4	34.4	34.4	83	29.8	1	4	248	0.00	29.844 
00:10	34.4	34.4	34.4	83	29.8	1	3	292	0.00	29.844 
00:15	34.4	34.4	34.4	83	29.8	1	3	292	0.00	29.837 
00:20	34.4	34.4	34.4	83	29.8	0	2	292	0.00	29.837 
00:25	34.3	34.3	34.3	83	29.7	0	2	292	0.00	29.837 
00:30	34.3	34.3	34.3	83	29.7	1	3	292	0.00	29.834 
00:35	34.3	34.3	34.3	83	29.7	0	1	292	0.00	29.834 
00:40	34.3	34.3	34.3	83	29.7	0	2	292	0.00	29.834 
00:45	34.3	34.3	34.3	83	29.7	1	3	292	0.00	29.847 
00:50	34.1	34.1	34.1	83	29.5	0	2	292	0.00	29.847 
00:55	34.1	34.1	34.1	83	29.5	0	1	292	0.00	29.847 
01:00	34.1	34.1	34.1	83	29.5	0	2	292	0.00	29.847 
01:05	34.1	34.1	34.1	83	29.5	0	1	292	0.00	29.847 
01:10	34.1	34.1	34.1	83	29.5	0	3	292	0.00	29.847 
01:15	34.0	34.0	34.0	83	29.4	0	1	292	0.00	29.839 
01:20	34.0	34.0	34.0	83	29.4	1	3	292	0.00	29.839 
01:25	34.0	34.0	34.0	83	29.4	1	3	292	0.00	29.839 
01:30	34.0	34.0	34.0	83	29.4	0	2	292	0.00	29.848 
01:35	34.0	34.0	34.0	83	29.4	0	1	292	0.00	29.848 
01:40	34.0	34.0	34.0	84	29.7	0	2	292	0.00	29.848 
01:45	33.8	33.8	33.8	84	29.5	0	1	292	0.00	29.858 
01:50	33.8	33.8	33.8	84	29.5	0	2	292	0.00	29.858 
01:55	33.8	33.8	33.8	84	29.5	0	2	292	0.00	29.858 
02:00	33.8	33.8	33.8	83	29.2	0	2	292	0.00	29.860 
02:05	33.8	33.8	33.8	83	29.2	0	3	292	0.00	29.860 
02:10	33.8	33.8	33.8	83	29.2	0	1	292	0.00	29.860 
02:15	33.7	33.7	33.7	83	29.1	0	3	292	0.00	29.863 
02:20	33.7	33.7	33.7	82	28.8	0	2	292	0.00	29.863 
02:25	33.7	33.7	33.7	82	28.8	1	2	292	0.00	29.863 
02:30	33.7	33.7	33.7	81	28.5	0	1	292	0.00	29.862 
02:35	33.7	33.7	33.7	81	28.5	0	1	292	0.00	29.862 
02:40	33.7	33.7	33.7	82	28.8	0	1	292	0.00	29.862 
02:45	33.5	33.5	33.5	81	28.3	0	2	292	0.00	29.859 
02:50	33.5	33.5	33.5	81	28.3	0	3	292	0.00	29.859 
02:55	33.4	33.4	33.4	80	27.9	1	2	292	0.00	29.859 
03:00	33.4	33.4	33.4	79	27.6	0	2	292	0.00	29.858 
03:05	33.4	33.4	33.4	79	27.6	1	3	292	0.00	29.858 
03:10	33.2	33.2	33.2	78	27.1	1	3	292	0.00	29.858 
03:15	33.2	33.2	33.2	78	27.1	1	4	315	0.00	29.854 
03:20	33.2	33.2	33.2	78	27.1	0	2	315	0.00	29.854 
03:25	33.2	33.2	33.2	78	27.1	0	2	315	0.00	29.854 
03:30	33.2	33.2	33.2	78	27.1	0	2	315	0.00	29.858 
03:35	33.1	33.1	33.1	78	27.0	0	2	315	0.00	29.858 
03:40	33.1	33.1	33.1	78	27.0	1	3	315	0.00	29.858 
03:45	33.1	33.1	33.1	78	27.0	0	2	315	0.00	29.861 
03:50	32.9	32.9	32.9	78	26.8	0	2	315	0.00	29.861 
03:55	32.9	32.9	32.9	79	27.1	0	3	315	0.00	29.861 
04:00	32.8	32.8	32.8	78	26.7	1	4	315	0.00	29.859 
04:05	32.8	32.8	32.8	78	26.7	0	1	315	0.00	29.859 
04:10	32.7	32.7	32.7	79	26.9	0	2	315	0.00	29.859 
04:15	32.7	32.7	32.7	79	26.9	0	2	315	0.00	29.866 
04:20	32.7	32.7	32.7	79	26.9	0	2	315	0.00	29.866 
04:25	32.4	32.4	32.4	77	26.0	1	4	315	0.00	29.866 
04:30	32.4	32.4	32.4	76	25.7	1	3	315	0.00	29.874 
04:35	32.2	32.2	32.2	76	25.5	1	3	315	0.00	29.874 
04:40	32.2	32.2	32.2	76	25.5	1	3	315	0.00	29.874 
04:45	32.1	32.1	32.1	75	25.1	0	2	315	0.00	29.866 
04:50	32.1	32.1	32.1	76	25.4	1	3	315	0.00	29.866 
04:55	31.9	31.9	31.9	76	25.2	0	3	315	0.00	29.866 
05:00	31.9	31.9	31.9	76	25.2	0	2	315	0.00	29.861 
05:05	31.8	31.8	31.8	76	25.1	1	3	315	0.00	29.861 
05:10	31.8	31.8	31.8	76	25.1	0	1	315	0.00	29.861 
05:15	31.6	31.6	31.6	76	24.9	0	1	315	0.00	29.871 
05:20	31.5	31.5	31.5	76	24.8	0	2	315	0.00	29.871 
05:25	31.5	31.5	31.5	77	25.1	0	2	315	0.00	29.871 
05:30	31.3	31.3	31.3	77	24.9	0	2	315	0.00	29.880 
05:35	31.2	31.2	31.2	77	24.8	0	2	315	0.00	29.880 
05:40	31.2	31.2	31.2	77	24.8	0	2	315	0.00	29.880 
05:45	31.0	31.0	31.0	77	24.7	0	2	315	0.00	29.889 
05:50	31.0	31.0	31.0	77	24.7	0	3	315	0.00	29.889 
05:55	30.9	30.9	30.9	77	24.6	0	1	315	0.00	29.889 
06:00	30.7	30.7	30.7	77	24.4	0	1	315	0.00	29.909 
06:05	30.7	30.7	30.7	77	24.4	0	1	315	0.00	29.909 
06:10	30.7	30.7	30.7	77	24.4	0	2	315	0.00	29.909 
06:15	30.6	30.6	30.6	77	24.3	0	1	315	0.00	29.923 
06:20	30.4	30.4	30.4	77	24.1	0	1	315	0.00	29.923 
06:25	30.4	30.4	30.4	77	24.1	0	1	315	0.00	29.923 
06:30	30.3	30.3	30.3	77	24.0	0	2	315	0.00	29.926 
06:35	30.1	30.1	30.1	77	23.8	0	1	315	0.00	29.926 
06:40	30.1	30.1	30.1	77	23.8	0	1	315	0.00	29.926 
06:45	30.1	30.1	30.1	77	23.8	0	1	315	0.00	29.942 
06:50	30.1	30.1	30.1	77	23.8	0	1	315	0.00	29.942 
06:55	30.1	30.1	30.1	77	23.8	0	1	315	0.00	29.942 
07:00	30.0	30.0	30.0	78	24.0	0	0	---	0.00	29.949 
07:05	30.0	30.0	30.0	78	24.0	0	1	315	0.00	29.949 
07:10	30.0	30.0	30.0	78	24.0	0	0	---	0.00	29.949 
07:15	30.0	30.0	30.0	78	24.0	0	0	---	0.00	29.943 
07:20	29.8	29.8	29.8	78	23.8	0	0	---	0.00	29.943 
07:25	29.8	29.8	29.8	78	23.8	0	1	315	0.00	29.943 
07:30	29.8	29.8	29.8	78	23.8	0	1	315	0.00	29.942 
07:35	30.0	30.0	30.0	78	24.0	0	1	315	0.00	29.942 
07:40	30.0	30.0	30.0	78	24.0	0	2	315	0.00	29.942 
07:45	30.1	30.1	30.1	78	24.1	0	1	315	0.00	29.952 
07:50	30.3	30.3	30.3	78	24.3	0	2	315	0.00	29.952 
07:55	30.4	30.4	30.4	78	24.4	1	3	315	0.00	29.952 
08:00	30.6	30.6	30.6	78	24.6	0	2	315	0.00	29.968 
08:05	30.6	30.6	30.6	78	24.6	0	3	315	0.00	29.968 
08:10	30.7	30.7	30.7	77	24.4	1	2	315	0.00	29.968 
08:15	30.7	30.7	30.7	77	24.4	0	2	315	0.00	29.968 
08:20	30.9	30.9	30.9	77	24.6	0	2	315	0.00	29.968 
08:25	30.9	30.9	30.9	77	24.6	0	2	315	0.00	29.968 
08:30	31.0	31.0	31.0	77	24.7	0	2	315	0.00	29.973 
08:35	31.2	31.2	31.2	77	24.8	1	3	315	0.00	29.973 
08:40	31.3	31.3	31.3	77	24.9	0	2	315	0.00	29.973 
08:45	31.3	31.3	31.3	76	24.6	1	2	315	0.00	29.977 
08:50	31.5	31.5	31.5	76	24.8	0	3	315	0.00	29.977 
08:55	31.6	31.6	31.6	76	24.9	1	2	315	0.00	29.977 
09:00	31.8	31.8	31.8	76	25.1	0	2	315	0.00	29.973 
09:05	31.8	31.8	31.8	75	24.8	1	2	315	0.00	29.973 
09:10	31.8	31.8	31.8	75	24.8	0	2	315	0.00	29.973 
09:15	31.9	31.9	31.9	74	24.6	0	2	315	0.00	29.990 
09:20	32.1	32.1	32.1	74	24.8	1	3	292	0.00	29.990 
09:25	32.5	32.5	32.5	73	24.8	0	2	292	0.00	29.990 
09:30	32.9	32.9	32.9	73	25.2	1	3	292	0.00	29.991 
09:35	32.9	32.9	32.9	70	24.2	1	3	292	0.00	29.991 
09:40	33.4	33.4	33.4	70	24.7	0	2	292	0.00	29.991 
09:45	33.5	33.5	33.5	66	23.4	2	6	292	0.00	29.975 
09:50	33.4	33.4	33.4	66	23.3	1	3	292	0.00	29.975 
09:55	33.4	33.4	33.4	65	22.9	1	4	292	0.00	29.975 
10:00	33.2	33.2	33.2	65	22.7	1	6	270	0.00	29.978 
10:05	33.4	33.4	33.4	65	22.9	0	2	338	0.00	29.978 
10:10	33.4	33.4	33.4	64	22.6	1	3	292	0.00	29.978 
10:15	33.4	33.4	33.4	65	22.9	1	3	292	0.00	29.984 
10:20	33.2	33.2	33.2	65	22.7	1	3	292	0.00	29.984 
10:25	33.4	33.4	33.4	65	22.9	1	2	292	0.00	29.984 
10:30	33.5	33.5	33.5	65	23.0	1	5	292	0.00	29.978 
10:35	33.4	33.4	33.4	65	22.9	2	7	338	0.00	29.978 
10:40	33.2	33.2	33.2	65	22.7	2	7	270	0.00	29.978 
10:45	33.1	33.1	33.1	65	22.6	2	5	338	0.00	29.990 
10:50	32.9	32.9	32.9	64	22.1	2	5	338	0.00	29.990 
10:55	32.7	32.7	32.7	63	21.5	2	6	338	0.00	29.990 
11:00	32.8	32.8	32.8	64	22.0	1	4	315	0.00	29.995 
11:05	32.9	32.9	32.9	63	21.7	2	7	315	0.00	29.995 
11:10	32.9	32.9	32.9	64	22.1	1	5	338	0.00	29.995 
11:15	32.9	32.9	32.9	63	21.7	2	4	270	0.00	29.996 
11:20	32.9	32.9	32.9	63	21.7	2	9	315	0.00	29.996 
11:25	32.9	32.9	32.9	62	21.3	2	6	292	0.00	29.996 
11:30	32.9	32.9	32.9	63	21.7	2	6	338	0.00	29.998 
11:35	32.9	32.9	32.9	61	20.9	2	6	292	0.00	29.998 
11:40	32.9	32.9	32.9	61	20.9	2	6	270	0.00	29.998 
11:45	33.2	33.2	33.2	59	20.4	2	4	270	0.00	30.003 
11:50	33.5	33.5	33.5	58	20.3	2	5	292	0.01	30.003 
11:55	34.0	34.0	34.0	58	20.8	1	5	338	0.00	30.003 
12:00	34.1	34.1	34.1	57	20.5	2	4	292	0.00	30.005 
12:05	33.8	33.8	33.8	58	20.6	2	5	338	0.00	30.005 
12:10	33.5	33.5	33.5	58	20.3	2	9	292	0.00	30.005 
12:15	33.5	33.5	33.5	56	19.5	2	6	270	0.00	30.008 
12:20	33.5	33.5	33.5	57	19.9	2	6	292	0.00	30.008 
12:25	33.4	33.4	33.4	58	20.2	2	5	315	0.00	30.008 
12:30	33.5	33.5	33.5	59	20.7	1	4	292	0.00	30.016 
12:35	33.5	33.5	33.5	61	21.5	2	5	292	0.00	30.016 
12:40	33.4	33.4	33.4	62	21.8	1	4	270	0.00	30.016 
12:45	33.4	33.4	33.4	64	22.6	1	6	292	0.00	30.018 
12:50	33.4	33.4	33.4	62	21.8	2	4	292	0.00	30.018 
12:55	33.2	33.2	33.2	64	22.4	1	3	315	0.00	30.018 
13:00	33.2	33.2	33.2	63	22.0	2	4	270	0.00	30.024 
13:05	32.8	32.8	32.8	63	21.6	2	5	270	0.00	30.024 
13:10	32.8	32.8	32.8	63	21.6	2	5	270	0.00	30.024 
13:15	32.7	32.7	32.7	63	21.5	2	6	338	0.00	30.028 
13:20	32.4	32.4	32.4	64	21.6	2	8	338	0.00	30.028 
13:25	32.4	32.4	32.4	64	21.6	1	3	292	0.00	30.028 
13:30	32.4	32.4	32.4	63	21.2	2	10	292	0.00	30.033 
13:35	32.4	32.4	32.4	63	21.2	2	6	292	0.00	30.033 
13:40	32.2	32.2	32.2	63	21.0	2	6	315	0.00	30.033 
13:45	32.2	32.2	32.2	62	20.7	2	6	270	0.00	30.027 
13:50	32.1	32.1	32.1	63	20.9	1	3	338	0.00	30.027 
13:55	31.9	31.9	31.9	62	20.4	2	4	338	0.00	30.027 
14:00	32.1	32.1	32.1	62	20.6	1	2	270	0.00	30.022 
14:05	32.4	32.4	32.4	63	21.2	1	3	270	0.00	30.022 
14:10	32.4	32.4	32.4	62	20.9	1	4	270	0.00	30.022 
14:15	32.2	32.2	32.2	62	20.7	1	3	292	0.00	30.021 
14:20	32.1	32.1	32.1	62	20.6	2	4	270	0.00	30.021 
14:25	31.9	31.9	31.9	62	20.4	1	3	270	0.00	30.021 
14:30	31.8	31.8	31.8	62	20.3	3	5	248	0.00	30.040 
14:35	31.6	31.6	31.6	62	20.1	2	5	292	0.00	30.040 
14:40	31.6	31.6	31.6	63	20.5	2	4	338	0.00	30.040 
14:45	31.3	31.3	31.3	62	19.8	3	6	270	0.00	30.042 
14:50	31.0	31.0	31.0	63	19.9	2	5	315	0.00	30.042 
14:55	30.6	30.6	30.6	64	19.9	3	10	292	0.00	30.042 
15:00	30.3	30.3	30.3	64	19.6	3	9	315	0.00	30.045 
15:05	30.3	30.3	30.3	64	19.6	3	7	270	0.00	30.045 
15:10	30.1	30.1	30.1	65	19.8	1	5	270	0.00	30.045 
15:15	29.8	29.8	29.8	64	19.1	3	5	292	0.00	30.043 
15:20	29.7	29.7	29.7	65	19.4	2	6	270	0.00	30.043 
15:25	29.3	29.3	29.3	65	19.0	3	7	292	0.00	30.043 
15:30	29.0	29.0	29.0	65	18.7	3	7	270	0.00	30.050 
15:35	28.5	28.5	28.5	65	18.3	3	7	292	0.00	30.050 
15:40	28.7	28.7	28.7	65	18.4	2	4	270	0.00	30.050 
15:45	28.5	28.5	28.5	65	18.3	2	5	270	0.00	30.045 
15:50	28.5	28.5	28.5	65	18.3	2	4	315	0.00	30.045 
15:55	28.5	28.5	28.5	64	17.9	2	4	270	0.00	30.045 
16:00	28.5	28.5	28.5	63	17.5	2	5	315	0.00	30.048 
16:05	28.5	28.5	28.5	63	17.5	1	3	292	0.00	30.048 
16:10	28.2	28.2	28.2	63	17.2	2	6	292	0.00	30.048 
16:15	28.2	28.2	28.2	62	16.9	2	4	270	0.00	30.059 
16:20	27.8	27.8	27.8	63	16.9	2	5	270	0.00	30.059 
16:25	27.3	27.3	27.3	62	16.0	3	5	270	0.00	30.059 
16:30	27.0	27.0	27.0	61	15.4	3	7	270	0.00	30.084 
16:35	26.4	26.4	26.4	58	13.7	3	7	315	0.00	30.084 
16:40	26.3	26.3	26.3	59	13.9	2	5	292	0.00	30.084 
16:45	26.1	26.1	26.1	59	13.8	3	7	292	0.00	30.094 
16:50	26.0	26.0	26.0	59	13.7	3	5	292	0.00	30.094 
16:55	25.8	25.8	25.8	58	13.1	3	7	292	0.00	30.094 
17:00	25.6	25.6	25.6	58	12.9	3	9	315	0.00	30.091 
17:05	25.4	25.4	25.4	58	12.7	2	6	315	0.00	30.091 
17:10	25.4	25.4	25.4	59	13.1	2	7	292	0.00	30.091 
17:15	25.1	25.1	25.1	58	12.4	3	6	338	0.00	30.104 
17:20	25.0	20.0	25.0	58	12.3	4	8	315	0.00	30.104 
17:25	25.0	25.0	25.0	59	12.7	2	6	292	0.00	30.104 
17:30	24.8	24.8	24.8	60	12.9	2	5	292	0.00	30.091 
17:35	24.5	24.5	24.5	60	12.6	2	6	0	0.00	30.091 
17:40	23.9	23.9	23.9	59	11.7	3	11	270	0.00	30.091 
17:45	23.6	18.4	23.6	60	11.8	4	8	292	0.00	30.107 
17:50	23.5	23.5	23.5	60	11.7	3	9	315	0.00	30.107 
17:55	23.2	17.9	23.2	60	11.4	4	7	292	0.00	30.107 
18:00	23.0	23.0	23.0	61	11.6	3	9	338	0.00	30.118 
18:05	22.9	22.9	22.9	61	11.5	3	10	292	0.00	30.118 
18:10	22.7	22.7	22.7	62	11.7	2	7	292	0.00	30.118 
18:15	22.4	22.4	22.4	61	11.0	3	6	338	0.00	30.115 
18:20	22.2	22.2	22.2	61	10.8	2	4	270	0.00	30.115 
18:25	21.9	16.4	21.9	60	10.2	4	10	292	0.00	30.115 
18:30	21.8	21.8	21.8	60	10.1	2	5	338	0.00	30.130 
18:35	21.6	21.6	21.6	60	9.9	2	7	292	0.00	30.130 
18:40	21.4	21.4	21.4	59	9.3	3	7	292	0.00	30.130 
18:45	21.3	21.3	21.3	58	8.9	2	6	292	0.00	30.145 
18:50	21.0	21.0	21.0	57	8.2	3	9	315	0.00	30.145 
18:55	20.8	20.8	20.8	56	7.6	3	8	292	0.00	30.145 
19:00	20.6	20.6	20.6	55	7.0	2	7	292	0.00	30.151 
19:05	20.5	20.5	20.5	55	6.9	2	9	315	0.00	30.151 
19:10	20.5	14.8	20.5	55	6.9	4	10	292	0.00	30.151 
19:15	20.5	20.5	20.5	56	7.3	2	7	292	0.00	30.182 
19:20	20.3	20.3	20.3	56	7.1	3	7	270	0.00	30.182 
19:25	20.3	20.3	20.3	57	7.5	2	6	315	0.00	30.182 
19:30	20.2	20.2	20.2	56	7.0	2	5	292	0.00	30.195 
19:35	20.2	20.2	20.2	56	7.0	3	9	315	0.00	30.195 
19:40	20.0	20.0	20.0	56	6.9	2	7	270	0.00	30.195 
19:45	20.0	20.0	20.0	56	6.9	2	6	270	0.00	30.203 
19:50	19.9	19.9	19.9	56	6.8	3	10	338	0.00	30.203 
19:55	19.9	19.9	19.9	57	7.2	2	6	315	0.00	30.203 
20:00	19.7	19.7	19.7	58	7.3	2	5	292	0.00	30.210 
20:05	19.7	19.7	19.7	58	7.3	2	6	315	0.00	30.210 
20:10	19.7	19.7	19.7	58	7.3	1	5	292	0.00	30.210 
20:15	19.7	19.7	19.7	58	7.3	1	5	292	0.00	30.199 
20:20	19.5	19.5	19.5	58	7.2	1	6	292	0.00	30.199 
20:25	19.4	19.4	19.4	56	6.3	3	9	338	0.00	30.199 
20:30	19.2	19.2	19.2	57	6.5	2	5	315	0.00	30.192 
20:35	19.1	19.1	19.1	56	6.0	2	9	338	0.00	30.192 
20:40	19.1	19.1	19.1	55	5.6	2	6	292	0.00	30.192 
20:45	18.9	18.9	18.9	55	5.4	1	6	315	0.00	30.180 
20:50	18.9	18.9	18.9	55	5.4	1	4	315	0.00	30.180 
20:55	18.8	18.8	18.8	54	4.9	2	5	270	0.00	30.180 
21:00	18.8	18.8	18.8	55	5.3	2	6	338	0.00	30.196 
21:05	18.8	18.8	18.8	55	5.3	2	10	270	0.00	30.196 
21:10	18.8	18.8	18.8	55	5.3	1	5	270	0.00	30.196 
21:15	18.8	18.8	18.8	55	5.3	2	6	292	0.00	30.223 
21:20	18.8	18.8	18.8	55	5.3	1	4	292	0.00	30.223 
21:25	18.8	18.8	18.8	54	4.9	1	5	0	0.00	30.223 
21:30	18.8	18.8	18.8	52	4.1	3	7	292	0.00	30.240 
21:35	18.8	18.8	18.8	52	4.1	1	4	270	0.00	30.240 
21:40	18.6	18.6	18.6	51	3.5	2	5	292	0.00	30.240 
21:45	18.6	18.6	18.6	50	3.1	2	6	0	0.00	30.240 
21:50	18.6	18.6	18.6	50	3.1	2	5	315	0.00	30.240 
21:55	18.4	18.4	18.4	50	2.9	1	5	315	0.00	30.240 
22:00	18.4	18.4	18.4	50	2.9	1	3	315	0.00	30.258 
22:05	18.4	18.4	18.4	51	3.3	1	5	315	0.00	30.258 
22:10	18.4	18.4	18.4	51	3.3	1	4	292	0.00	30.258 
22:15	18.4	18.4	18.4	50	2.9	2	5	338	0.00	30.270 
22:20	18.4	18.4	18.4	51	3.3	1	3	338	0.00	30.270 
22:25	18.4	18.4	18.4	51	3.3	1	4	270	0.00	30.270 
22:30	18.4	18.4	18.4	51	3.3	1	4	270	0.00	30.283 
22:35	18.3	18.3	18.3	52	3.7	1	4	270	0.00	30.283 
22:40	18.3	18.3	18.3	52	3.7	0	3	0	0.00	30.283 
22:45	18.3	18.3	18.3	52	3.7	1	5	292	0.00	30.281 
22:50	18.3	18.3	18.3	52	3.7	1	4	292	0.00	30.281 
22:55	18.3	18.3	18.3	52	3.7	1	3	0	0.00	30.281 
23:00	18.3	18.3	18.3	52	3.7	1	3	292	0.00	30.285 
23:05	18.3	18.3	18.3	52	3.7	1	4	45	0.00	30.285 
23:10	18.3	18.3	18.3	52	3.7	0	3	338	0.00	30.285 
23:15	18.3	18.3	18.3	53	4.1	0	2	338	0.00	30.296 
23:20	18.3	18.3	18.3	53	4.1	0	1	338	0.00	30.296 
23:25	18.1	18.1	18.1	53	3.9	0	2	338	0.00	30.296 
23:30	18.1	18.1	18.1	53	3.9	0	3	338	0.00	30.279 
23:35	18.1	18.1	18.1	52	3.5	0	4	338	0.00	30.279 
23:40	18.1	18.1	18.1	53	3.9	0	2	338	0.00	30.279 
23:45	18.1	18.1	18.1	53	3.9	0	2	338	0.00	30.274 
23:50	18.1	18.1	18.1	52	3.5	1	4	338	0.00	30.274 
23:55	18.1	18.1	18.1	53	3.9	0	1	292	0.00	30.274 

CoCoRaHS
IN-AL-39
A2 Web Hosting
Creative Commons License
GoDaddy
search engine by freefind advanced

loaded 2018-11-12 14:53:32 • last modified 2010-11-18 10:43:29
Privacy PolicyDisclaimer
• wx.awcolley.com is powered by PmWiki v.2002016 •
• all content (unless otherwise noted) © 2018 A W Colley